Time;durP1;ratioP1;P1;durP2;ratioP2;P2;SDS_P1;SDS_P2;PMS_P1;PMS_P2;Temp;Humidity;BMP_temperature;BMP_pressure;BME280_temperature;BME280_humidity;BME280_pressure;Samples;Min_cycle;Max_cycle;Signal;HPM_P1;HPM_P2
2023/01/04 21:02:33;;;;;;;24.50;15.18;;;;;;;;;;6014114;23;20286;-87
2023/01/04 21:04:59;;;;;;;18.00;11.75;;;;;;;;;;6013829;23;20023;-87
2023/01/04 21:07:42;;;;;;;19.73;13.80;;;;;;;;;;5109575;27;20397;-86
2023/01/04 21:10:08;;;;;;;20.25;13.50;;;;;;;;;;5092989;28;20452;-87
2023/01/04 21:12:36;;;;;;;18.58;12.95;;;;;;;;;;5091544;28;20029;-87
2023/01/04 21:15:01;;;;;;;16.45;12.43;;;;;;;;;;5097840;28;20028;-87
2023/01/04 21:17:27;;;;;;;17.55;11.98;;;;;;;;;;5091648;28;20436;-87
2023/01/04 21:19:53;;;;;;;17.40;13.20;;;;;;;;;;5083110;28;20054;-87
2023/01/04 21:22:21;;;;;;;16.63;12.80;;;;;;;;;;5091451;28;20499;-86
2023/01/04 21:24:46;;;;;;;19.70;12.93;;;;;;;;;;5090489;28;20024;-87
2023/01/04 21:27:12;;;;;;;18.15;13.20;;;;;;;;;;5099872;28;20034;-85
2023/01/04 21:29:37;;;;;;;19.00;13.07;;;;;;;;;;5099310;28;20024;-87
2023/01/04 21:32:03;;;;;;;17.08;13.25;;;;;;;;;;5109645;28;20382;-87
2023/01/04 21:34:30;;;;;;;18.63;12.77;;;;;;;;;;5110760;28;20146;-87
2023/01/04 21:36:55;;;;;;;18.98;13.15;;;;;;;;;;5109087;28;20031;-87
2023/01/04 21:39:21;;;;;;;19.77;13.48;;;;;;;;;;5098559;28;20027;-87
2023/01/04 21:41:49;;;;;;;22.52;14.68;;;;;;;;;;5090090;28;20028;-87
2023/01/04 21:44:15;;;;;;;17.65;12.73;;;;;;;;;;5090435;28;20024;-87
2023/01/04 21:46:41;;;;;;;15.70;10.60;;;;;;;;;;5093714;28;20464;-89
2023/01/04 21:49:08;;;;;;;15.13;10.48;;;;;;;;;;5110457;28;20011;-86
2023/01/04 21:51:34;;;;;;;16.63;11.70;;;;;;;;;;5096993;28;20029;-87
2023/01/04 21:54:00;;;;;;;12.88;10.48;;;;;;;;;;5109367;28;20474;-86
2023/01/04 21:56:26;;;;;;;14.90;10.82;;;;;;;;;;5109093;28;20438;-87
2023/01/04 21:58:52;;;;;;;11.15;9.25;;;;;;;;;;5103321;28;20012;-88
2023/01/04 22:01:21;;;;;;;12.52;8.82;;;;;;;;;;5105693;28;20039;-88
2023/01/04 22:03:47;;;;;;;15.33;10.77;;;;;;;;;;5092424;28;20146;-88
2023/01/04 22:06:13;;;;;;;11.55;8.98;;;;;;;;;;5089582;28;20359;-89
2023/01/04 22:08:42;;;;;;;9.93;8.48;;;;;;;;;;5089685;28;20035;-89
2023/01/04 22:11:09;;;;;;;10.85;8.02;;;;;;;;;;5093806;28;20058;-89
2023/01/04 22:13:34;;;;;;;11.55;7.60;;;;;;;;;;5098293;28;20051;-89
2023/01/04 22:16:07;;;;;;;9.70;7.47;;;;;;;;;;5088177;28;20505;-89
2023/01/04 22:18:33;;;;;;;9.48;7.03;;;;;;;;;;5087838;28;20019;-88
2023/01/04 22:21:01;;;;;;;13.40;9.13;;;;;;;;;;5095064;28;20024;-89
2023/01/04 22:23:29;;;;;;;14.57;9.30;;;;;;;;;;5096460;28;20608;-89
2023/01/04 22:25:55;;;;;;;11.27;8.43;;;;;;;;;;5095913;28;20382;-89
2023/01/04 22:28:21;;;;;;;11.82;8.18;;;;;;;;;;5094897;28;20020;-88
2023/01/04 22:30:46;;;;;;;12.65;8.40;;;;;;;;;;5096153;28;20026;-89
2023/01/04 22:33:12;;;;;;;10.48;7.70;;;;;;;;;;5096040;28;20044;-90
2023/01/04 22:35:39;;;;;;;9.70;7.45;;;;;;;;;;5095008;28;20028;-89
2023/01/04 22:38:04;;;;;;;11.90;7.88;;;;;;;;;;5094689;28;20474;-89
2023/01/04 22:40:30;;;;;;;10.60;7.90;;;;;;;;;;5096113;28;20103;-89
2023/01/04 22:42:55;;;;;;;11.93;9.05;;;;;;;;;;5094590;28;20416;-88
2023/01/04 22:45:21;;;;;;;12.57;9.10;;;;;;;;;;5094593;28;20367;-89
2023/01/04 22:47:46;;;;;;;14.10;10.13;;;;;;;;;;5096105;28;20052;-89
2023/01/04 22:50:11;;;;;;;13.20;10.23;;;;;;;;;;5096415;28;20028;-88
2023/01/04 22:52:37;;;;;;;13.23;10.25;;;;;;;;;;5096500;28;20050;-92
2023/01/04 22:55:02;;;;;;;13.23;9.85;;;;;;;;;;5089744;28;20013;-89
2023/01/04 22:57:28;;;;;;;11.93;9.25;;;;;;;;;;5086408;28;20047;-92
2023/01/04 22:59:53;;;;;;;15.80;10.13;;;;;;;;;;5095932;28;20063;-92
2023/01/04 23:02:19;;;;;;;12.80;9.70;;;;;;;;;;5095789;28;20031;-92
2023/01/04 23:04:44;;;;;;;11.23;8.73;;;;;;;;;;5086099;28;20027;-89
2023/01/04 23:07:09;;;;;;;12.90;8.90;;;;;;;;;;5094275;28;20482;-89
2023/01/04 23:09:35;;;;;;;13.70;9.27;;;;;;;;;;5095541;28;20020;-89
2023/01/04 23:12:00;;;;;;;11.13;9.35;;;;;;;;;;5082971;28;20024;-90
2023/01/04 23:14:26;;;;;;;11.00;8.32;;;;;;;;;;5079566;28;20082;-89
2023/01/04 23:16:51;;;;;;;10.70;7.18;;;;;;;;;;5093999;28;20110;-89
2023/01/04 23:19:17;;;;;;;10.88;6.82;;;;;;;;;;5094034;28;20032;-89
2023/01/04 23:21:42;;;;;;;8.45;6.28;;;;;;;;;;5095736;28;20024;-91
2023/01/04 23:24:13;;;;;;;8.73;6.80;;;;;;;;;;5094178;28;20419;-91
2023/01/04 23:26:38;;;;;;;10.13;6.60;;;;;;;;;;5093906;28;20035;-91
2023/01/04 23:29:04;;;;;;;8.60;6.95;;;;;;;;;;5092698;28;20039;-89
2023/01/04 23:31:31;;;;;;;8.60;6.95;;;;;;;;;;5093793;28;20352;-92
2023/01/04 23:33:59;;;;;;;9.45;6.82;;;;;;;;;;5094274;28;20047;-89
2023/01/04 23:36:28;;;;;;;9.63;7.38;;;;;;;;;;5094984;28;20374;-86
